地図

経路データ

SID SEASON NUMBER BASIN SUBBASIN NAME ISO_TIME NATURE LAT LON WMO_WIND WMO_PRES WMO_AGENCY TRACK_TYPE DIST2LAND LANDFALL IFLAG USA_AGENCY USA_ATCF_ID USA_LAT USA_LON USA_RECORD USA_STATUS USA_WIND USA_PRES USA_SSHS USA_R34_NE USA_R34_SE USA_R34_SW USA_R34_NW USA_R50_NE USA_R50_SE USA_R50_SW USA_R50_NW USA_R64_NE USA_R64_SE USA_R64_SW USA_R64_NW USA_POCI USA_ROCI USA_RMW USA_EYE TOKYO_LAT TOKYO_LON TOKYO_GRADE TOKYO_WIND TOKYO_PRES TOKYO_R50_DIR TOKYO_R50_LONG TOKYO_R50_SHORT TOKYO_R30_DIR TOKYO_R30_LONG TOKYO_R30_SHORT TOKYO_LAND CMA_LAT CMA_LON CMA_CAT CMA_WIND CMA_PRES HKO_LAT HKO_LON HKO_CAT HKO_WIND HKO_PRES NEWDELHI_LAT NEWDELHI_LON NEWDELHI_GRADE NEWDELHI_WIND NEWDELHI_PRES NEWDELHI_CI NEWDELHI_DP NEWDELHI_POCI REUNION_LAT REUNION_LON REUNION_TYPE REUNION_WIND REUNION_PRES REUNION_TNUM REUNION_CI REUNION_RMW REUNION_R34_NE REUNION_R34_SE REUNION_R34_SW REUNION_R34_NW REUNION_R50_NE REUNION_R50_SE REUNION_R50_SW REUNION_R50_NW REUNION_R64_NE REUNION_R64_SE REUNION_R64_SW REUNION_R64_NW BOM_LAT BOM_LON BOM_TYPE BOM_WIND BOM_PRES BOM_TNUM BOM_CI BOM_RMW BOM_R34_NE BOM_R34_SE BOM_R34_SW BOM_R34_NW BOM_R50_NE BOM_R50_SE BOM_R50_SW BOM_R50_NW BOM_R64_NE BOM_R64_SE BOM_R64_SW BOM_R64_NW BOM_ROCI BOM_POCI BOM_EYE BOM_POS_METHOD BOM_PRES_METHOD NADI_LAT NADI_LON NADI_CAT NADI_WIND NADI_PRES WELLINGTON_LAT WELLINGTON_LON WELLINGTON_WIND WELLINGTON_PRES DS824_LAT DS824_LON DS824_STAGE DS824_WIND DS824_PRES TD9636_LAT TD9636_LON TD9636_STAGE TD9636_WIND TD9636_PRES TD9635_LAT TD9635_LON TD9635_WIND TD9635_PRES TD9635_ROCI NEUMANN_LAT NEUMANN_LON NEUMANN_CLASS NEUMANN_WIND NEUMANN_PRES MLC_LAT MLC_LON MLC_CLASS MLC_WIND MLC_PRES USA_GUST BOM_GUST BOM_GUST_PER REUNION_GUST REUNION_GUST_PER USA_SEAHGT USA_SEARAD_NE USA_SEARAD_SE USA_SEARAD_SW USA_SEARAD_NW STORM_SPEED STORM_DIR
1925268N12143 1925 51 WP MM NOT_NAMED 1925-09-24 22:00:00 NR 12.4000 142.700 main 1645 1632 __________O___ -1 12.4000 142.700 7 12 267
1925268N12143 1925 51 WP MM NOT_NAMED 1925-09-25 00:00:00 NR 12.3800 142.284 main 1632 1611 __________P___ -1 12.3800 142.284 7 12 267
1925268N12143 1925 51 WP MM NOT_NAMED 1925-09-25 03:00:00 NR 12.3506 141.666 main 1611 1576 __________P___ -1 12.3506 141.666 7 12 267
1925268N12143 1925 51 WP MM NOT_NAMED 1925-09-25 06:00:00 NR 12.3246 141.063 main 1576 1553 __________P___ -1 12.3246 141.063 7 12 268
1925268N12143 1925 51 WP MM NOT_NAMED 1925-09-25 09:00:00 NR 12.3047 140.485 main 1553 1546 __________P___ -1 12.3047 140.485 7 11 268
1925268N12143 1925 51 WP MM NOT_NAMED 1925-09-25 10:00:00 NR 12.3000 140.300 main 1546 1532 __________O___ -1 12.3000 140.300 7 11 269
1925268N12143 1925 51 WP MM NOT_NAMED 1925-09-25 12:00:00 NR 12.2947 139.941 main 1532 1483 __________P___ -1 12.2947 139.941 7 10 270
1925268N12143 1925 51 WP MM NOT_NAMED 1925-09-25 15:00:00 NR 12.3056 139.420 main 1483 1430 __________P___ -1 12.3056 139.420 7 10 273
1925268N12143 1925 51 WP MM NOT_NAMED 1925-09-25 18:00:00 NR 12.3530 138.907 main 1433 1380 __________P___ -1 12.3530 138.907 7 10 278
1925268N12143 1925 51 WP MM NOT_NAMED 1925-09-25 21:00:00 NR 12.4526 138.381 main 1382 1361 __________P___ -1 12.4526 138.381 7 11 282
1925268N12143 1925 51 WP MM NOT_NAMED 1925-09-25 22:00:00 NR 12.5000 138.200 main 1361 1319 __________O___ -1 12.5000 138.200 7 12 286
1925268N12143 1925 51 WP MM NOT_NAMED 1925-09-26 00:00:00 NR 12.6132 137.804 main 1319 1257 __________P___ -1 12.6132 137.804 7 12 289
1925268N12143 1925 51 WP MM NOT_NAMED 1925-09-26 03:00:00 NR 12.8333 137.191 main 1257 1198 __________P___ -1 12.8333 137.191 7 13 292
1925268N12143 1925 51 WP MM NOT_NAMED 1925-09-26 06:00:00 NR 13.0997 136.577 main 1198 1141 __________P___ -1 13.0997 136.577 7 13 296
1925268N12143 1925 51 WP MM NOT_NAMED 1925-09-26 09:00:00 NR 13.3968 135.987 main 1141 1122 __________P___ -1 13.3968 135.987 7 13 298
1925268N12143 1925 51 WP MM NOT_NAMED 1925-09-26 10:00:00 NR 13.5000 135.800 main 1122 1093 __________O___ -1 13.5000 135.800 7 12 299
1925268N12143 1925 51 WP MM NOT_NAMED 1925-09-26 12:00:00 NR 13.6859 135.457 main 1096 1047 __________P___ -1 13.6859 135.457 7 11 301
1925268N12143 1925 51 WP MM NOT_NAMED 1925-09-26 15:00:00 NR 13.9838 134.974 main 1048 1002 __________P___ -1 13.9838 134.974 7 11 304
1925268N12143 1925 51 WP MM NOT_NAMED 1925-09-26 18:00:00 NR 14.3101 134.513 main 1002 968 __________P___ -1 14.3101 134.513 7 11 308
1925268N12143 1925 51 WP MM NOT_NAMED 1925-09-26 21:00:00 NR 14.6710 134.055 main 971 954 __________P___ -1 14.6710 134.055 7 12 310
1925268N12143 1925 51 WP MM NOT_NAMED 1925-09-26 22:00:00 NR 14.8000 133.900 main 954 930 __________O___ -1 14.8000 133.900 7 12 309
1925268N12143 1925 51 WP MM NOT_NAMED 1925-09-27 00:00:00 NR 15.0611 133.554 main 933 890 __________P___ -1 15.0611 133.554 7 13 309
1925268N12143 1925 51 WP MM NOT_NAMED 1925-09-27 03:00:00 NR 15.4840 133.028 main 890 861 __________P___ -1 15.4840 133.028 7 13 311
1925268N12143 1925 51 WP MM NOT_NAMED 1925-09-27 06:00:00 NR 15.9416 132.517 main 861 843 __________P___ -1 15.9416 132.517 7 13 315
1925268N12143 1925 51 WP MM NOT_NAMED 1925-09-27 09:00:00 NR 16.4305 132.044 main 843 840 __________P___ -1 16.4305 132.044 7 13 318
1925268N12143 1925 51 WP MM NOT_NAMED 1925-09-27 10:00:00 NR 16.6000 131.900 main 847 841 __________O___ -1 16.6000 131.900 7 13 322
1925268N12143 1925 51 WP MM NOT_NAMED 1925-09-27 12:00:00 NR 16.9304 131.635 main 841 836 __________P___ -1 16.9304 131.635 7 13 325
1925268N12143 1925 51 WP MM NOT_NAMED 1925-09-27 15:00:00 NR 17.4512 131.282 main 841 832 __________P___ -1 17.4512 131.282 7 13 329
1925268N12143 1925 51 WP MM NOT_NAMED 1925-09-27 18:00:00 NR 18.0050 130.971 main 841 838 __________P___ -1 18.0050 130.971 7 13 334
1925268N12143 1925 51 WP MM NOT_NAMED 1925-09-27 21:00:00 NR 18.5949 130.689 main 853 852 __________P___ -1 18.5949 130.689 7 13 336
1925268N12143 1925 51 WP MM NOT_NAMED 1925-09-27 22:00:00 NR 18.8000 130.600 main 859 857 __________O___ -1 18.8000 130.600 3 14 337
1925268N12143 1925 51 WP MM NOT_NAMED 1925-09-28 00:00:00 NR 19.2266 130.403 main 857 836 __________P___ -1 19.2266 130.403 3 14 338
1925268N12143 1925 51 WP MM NOT_NAMED 1925-09-28 03:00:00 NR 19.8983 130.126 main 836 827 __________P___ -1 19.8983 130.126 3 15 340
1925268N12143 1925 51 WP MM NOT_NAMED 1925-09-28 06:00:00 NR 20.5886 129.878 main 833 826 __________P___ -1 20.5886 129.878 3 15 343
1925268N12143 1925 51 WP MM NOT_NAMED 1925-09-28 09:00:00 NR 21.2756 129.663 main 838 833 __________P___ -1 21.2756 129.663 3 14 344
1925268N12143 1925 51 WP MM NOT_NAMED 1925-09-28 10:00:00 NR 21.5000 129.600 main 837 828 __________O___ -1 21.5000 129.600 4 14 345
1925268N12143 1925 51 WP MM NOT_NAMED 1925-09-28 12:00:00 NR 21.9332 129.467 main 828 783 __________P___ -1 21.9332 129.467 4 13 345
1925268N12143 1925 51 WP MM NOT_NAMED 1925-09-28 15:00:00 NR 22.5706 129.299 main 783 755 __________P___ -1 22.5706 129.299 4 13 348
1925268N12143 1925 51 WP MM NOT_NAMED 1925-09-28 18:00:00 NR 23.1931 129.177 main 755 730 __________P___ -1 23.1931 129.177 4 12 352
1925268N12143 1925 51 WP MM NOT_NAMED 1925-09-28 21:00:00 NR 23.8008 129.109 main 730 726 __________P___ -1 23.8008 129.109 4 12 355
1925268N12143 1925 51 WP MM NOT_NAMED 1925-09-28 22:00:00 NR 24.0000 129.100 main 726 719 __________O___ -1 24.0000 129.100 4 12 0
1925268N12143 1925 51 WP MM NOT_NAMED 1925-09-29 00:00:00 NR 24.4051 129.088 main 719 688 __________P___ -1 24.4051 129.088 4 12 0
1925268N12143 1925 51 WP MM NOT_NAMED 1925-09-29 03:00:00 NR 25.0004 129.121 main 688 620 __________P___ -1 25.0004 129.121 4 12 5
1925268N12143 1925 51 WP MM NOT_NAMED 1925-09-29 06:00:00 NR 25.5755 129.209 main 620 563 __________P___ -1 25.5755 129.209 4 11 10
1925268N12143 1925 51 WP MM NOT_NAMED 1925-09-29 09:00:00 NR 26.1241 129.345 main 563 539 __________P___ -1 26.1241 129.345 4 11 13
1925268N12143 1925 51 WP MM NOT_NAMED 1925-09-29 10:00:00 NR 26.3000 129.400 main 539 504 __________O___ -1 26.3000 129.400 4 11 17
1925268N12143 1925 51 WP MM NOT_NAMED 1925-09-29 12:00:00 NR 26.6406 129.522 main 504 446 __________P___ -1 26.6406 129.522 4 11 20
1925268N12143 1925 51 WP MM NOT_NAMED 1925-09-29 15:00:00 NR 27.1280 129.733 main 446 385 __________P___ -1 27.1280 129.733 4 10 23
1925268N12143 1925 51 WP MM NOT_NAMED 1925-09-29 18:00:00 NR 27.5948 129.967 main 385 338 __________P___ -1 27.5948 129.967 4 10 25
1925268N12143 1925 51 WP MM NOT_NAMED 1925-09-29 21:00:00 NR 28.0496 130.215 main 338 314 __________P___ -1 28.0496 130.215 4 10 26
1925268N12143 1925 51 WP MM NOT_NAMED 1925-09-29 22:00:00 NR 28.2000 130.300 main 314 __________O___ -1 28.2000 130.300 4 10 26

デジタル台風データ・検索

IBTrACS Databaseについて

本データベースは、米国NOAAが公開する1842年以降の世界の熱帯低気圧のベストトラックデータアーカイブInternational Best Track Archive for Climate Stewardship (IBTrACS)を、ウェブで閲覧しやすい形式に変換したものです。

最終更新日:2021-12-01